createdAt,value
2023-03-22T00:00:29.263Z,60.37
2023-03-22T00:02:56.870Z,60.13
2023-03-22T00:05:24.100Z,60.20
2023-03-22T00:07:54.127Z,60.11
2023-03-22T00:10:21.411Z,60.67
2023-03-22T00:12:48.411Z,60.63
2023-03-22T00:15:15.504Z,60.86
2023-03-22T00:17:44.716Z,60.85
2023-03-22T00:20:12.498Z,60.63
2023-03-22T00:22:39.712Z,60.97
2023-03-22T00:25:07.098Z,61.10
2023-03-22T00:27:34.080Z,60.60
2023-03-22T00:30:00.998Z,60.56
2023-03-22T00:32:28.100Z,60.78
2023-03-22T00:34:55.048Z,61.26
2023-03-22T00:37:21.898Z,60.45
2023-03-22T00:39:49.003Z,61.16
2023-03-22T00:42:16.090Z,60.58
2023-03-22T00:44:43.185Z,61.04
2023-03-22T00:47:10.326Z,61.44
2023-03-22T00:49:37.608Z,60.91
2023-03-22T00:52:04.852Z,61.48
2023-03-22T00:54:32.024Z,61.74
2023-03-22T00:56:59.103Z,60.84
2023-03-22T00:59:26.176Z,60.75
2023-03-22T01:01:53.293Z,61.32
2023-03-22T01:04:26.240Z,61.87
2023-03-22T01:06:59.366Z,61.02
2023-03-22T01:09:29.214Z,61.90
2023-03-22T01:11:56.861Z,61.50
2023-03-22T01:14:24.814Z,61.22
2023-03-22T01:16:55.017Z,61.59
2023-03-22T01:19:22.054Z,62.31
2023-03-22T01:21:49.223Z,62.03
2023-03-22T01:24:16.956Z,61.42
2023-03-22T01:26:44.119Z,61.98
2023-03-22T01:29:11.081Z,62.60
2023-03-22T01:31:38.037Z,62.32
2023-03-22T01:34:04.990Z,62.10
2023-03-22T01:36:32.055Z,62.73
2023-03-22T01:38:59.542Z,62.90
2023-03-22T01:41:26.635Z,62.75
2023-03-22T01:44:29.847Z,62.53
2023-03-22T01:46:57.633Z,61.80
2023-03-22T01:49:32.446Z,63.33
2023-03-22T01:52:03.964Z,63.43
2023-03-22T01:55:09.681Z,63.13
2023-03-22T01:57:43.875Z,62.24
2023-03-22T02:00:23.387Z,63.05
2023-03-22T02:03:15.422Z,63.38
2023-03-22T02:05:47.839Z,62.20
2023-03-22T02:08:15.764Z,62.36
2023-03-22T02:11:02.258Z,62.91
2023-03-22T02:13:48.105Z,62.47
2023-03-22T02:17:16.944Z,63.79
2023-03-22T02:19:59.029Z,63.54
2023-03-22T02:22:53.232Z,62.68
2023-03-22T02:25:54.305Z,63.72
2023-03-22T02:28:53.866Z,63.28
2023-03-22T02:31:46.972Z,63.24
2023-03-22T02:34:44.750Z,63.99
2023-03-22T02:37:43.672Z,63.99
2023-03-22T02:40:39.862Z,63.64
2023-03-22T02:43:09.846Z,64.19
2023-03-22T02:45:40.845Z,63.97
2023-03-22T02:48:08.033Z,64.30
2023-03-22T02:50:43.653Z,63.71
2023-03-22T02:53:34.308Z,64.45
2023-03-22T02:56:03.612Z,63.42
2023-03-22T02:58:45.913Z,64.02
2023-03-22T03:01:54.871Z,63.45
2023-03-22T03:04:35.582Z,64.03
2023-03-22T03:07:09.468Z,63.92
2023-03-22T03:09:40.270Z,64.55
2023-03-22T03:12:33.888Z,64.74
2023-03-22T03:15:01.097Z,64.25
2023-03-22T03:17:33.553Z,63.74
2023-03-22T03:20:15.147Z,63.97
2023-03-22T03:23:05.558Z,63.96
2023-03-22T03:25:43.734Z,63.54
2023-03-22T03:28:30.388Z,63.75
2023-03-22T03:31:06.617Z,64.02
2023-03-22T03:33:37.965Z,64.04
2023-03-22T03:36:11.544Z,64.25
2023-03-22T03:38:44.630Z,64.98
2023-03-22T03:41:16.581Z,64.26
2023-03-22T03:43:45.726Z,64.98
2023-03-22T03:46:12.959Z,63.79
2023-03-22T03:48:44.575Z,64.69
2023-03-22T03:51:11.746Z,63.97
2023-03-22T03:53:38.903Z,65.08
2023-03-22T03:56:06.617Z,65.26
2023-03-22T03:58:38.555Z,65.22
2023-03-22T04:01:05.906Z,65.23
2023-03-22T04:03:33.115Z,64.71
2023-03-22T04:06:06.524Z,64.49
2023-03-22T04:08:37.533Z,64.93
2023-03-22T04:11:04.906Z,64.13
2023-03-22T04:13:32.362Z,64.71
2023-03-22T04:16:02.695Z,64.45
2023-03-22T04:18:34.415Z,65.08
2023-03-22T04:21:05.670Z,65.34
2023-03-22T04:23:41.093Z,64.99
2023-03-22T04:26:08.375Z,64.64
2023-03-22T04:28:46.093Z,64.73
2023-03-22T04:31:13.178Z,64.81
2023-03-22T04:33:48.312Z,64.72
2023-03-22T04:36:24.798Z,64.44
2023-03-22T04:39:15.228Z,65.70
2023-03-22T04:41:50.311Z,65.07
2023-03-22T04:44:17.454Z,65.16
2023-03-22T04:46:49.528Z,64.73
2023-03-22T04:49:17.157Z,64.64
2023-03-22T04:51:45.478Z,65.10
2023-03-22T04:54:24.427Z,65.30
2023-03-22T04:56:51.835Z,64.97
2023-03-22T04:59:21.510Z,65.70
2023-03-22T05:01:51.808Z,65.08
2023-03-22T05:04:23.093Z,65.98
2023-03-22T05:06:56.905Z,65.96
2023-03-22T05:09:31.148Z,64.85
2023-03-22T05:11:58.536Z,65.98
2023-03-22T05:14:36.113Z,64.79
2023-03-22T05:17:03.920Z,65.51
2023-03-22T05:19:34.513Z,65.50
2023-03-22T05:22:02.270Z,65.37
2023-03-22T05:24:45.680Z,65.63
2023-03-22T05:27:17.773Z,66.06
2023-03-22T05:29:46.863Z,65.55
2023-03-22T05:32:25.662Z,66.33
2023-03-22T05:34:55.798Z,65.64
2023-03-22T05:37:32.235Z,66.29
2023-03-22T05:39:59.709Z,65.44
2023-03-22T05:42:36.551Z,66.41
2023-03-22T05:45:12.068Z,66.06
2023-03-22T05:47:39.647Z,65.66
2023-03-22T05:50:17.063Z,66.09
2023-03-22T05:52:44.795Z,66.12
2023-03-22T05:55:27.533Z,66.79
2023-03-22T05:57:59.624Z,66.69
2023-03-22T06:00:28.716Z,66.64
2023-03-22T06:03:23.008Z,66.14
2023-03-22T06:05:58.478Z,66.68
2023-03-22T06:08:51.292Z,66.44
2023-03-22T06:11:19.405Z,66.69
2023-03-22T06:13:46.829Z,66.31
2023-03-22T06:16:15.005Z,66.99
2023-03-22T06:18:43.121Z,66.72
2023-03-22T06:21:12.626Z,66.83
2023-03-22T06:23:39.826Z,67.06
2023-03-22T06:26:09.520Z,67.11
2023-03-22T06:28:36.910Z,66.36
2023-03-22T06:31:10.437Z,66.50
2023-03-22T06:33:55.783Z,66.85
2023-03-22T06:36:37.622Z,66.71
2023-03-22T06:39:18.130Z,67.12
2023-03-22T06:41:46.090Z,66.97
2023-03-22T06:44:13.225Z,67.30
2023-03-22T06:46:52.357Z,66.48
2023-03-22T06:49:39.390Z,66.42
2023-03-22T06:52:06.847Z,66.99
2023-03-22T06:54:34.809Z,66.87
2023-03-22T06:57:01.817Z,67.21
2023-03-22T06:59:29.087Z,67.40
2023-03-22T07:01:56.286Z,66.91
2023-03-22T07:04:25.095Z,66.70
2023-03-22T07:06:52.324Z,67.27
2023-03-22T07:09:19.733Z,67.09
2023-03-22T07:11:50.799Z,66.56
2023-03-22T07:14:18.148Z,67.24
2023-03-22T07:16:57.855Z,67.24
2023-03-22T07:19:26.031Z,66.95
2023-03-22T07:21:53.423Z,66.50
2023-03-22T07:24:21.169Z,67.00
2023-03-22T07:26:48.331Z,66.73
2023-03-22T07:29:19.817Z,66.73
2023-03-22T07:31:46.959Z,66.65
2023-03-22T07:34:23.538Z,67.06
2023-03-22T07:37:12.748Z,66.95
2023-03-22T07:39:41.212Z,67.11
2023-03-22T07:42:09.574Z,67.31
2023-03-22T07:44:57.164Z,67.07
2023-03-22T07:47:39.609Z,66.72
2023-03-22T07:50:26.343Z,66.76
2023-03-22T07:52:56.365Z,67.25
2023-03-22T07:55:23.431Z,66.79
2023-03-22T07:57:51.407Z,67.06
2023-03-22T08:00:19.213Z,66.65
2023-03-22T08:02:55.747Z,66.97
2023-03-22T08:05:43.833Z,66.87
2023-03-22T08:08:14.757Z,66.90
2023-03-22T08:10:42.435Z,66.98
2023-03-22T08:13:09.585Z,67.01
2023-03-22T08:15:38.955Z,66.97
2023-03-22T08:18:08.732Z,67.15
2023-03-22T08:20:40.018Z,67.34
2023-03-22T08:23:16.975Z,67.21
2023-03-22T08:25:57.249Z,67.16
2023-03-22T08:28:24.730Z,67.48
2023-03-22T08:30:51.835Z,67.53
2023-03-22T08:33:23.757Z,67.51
2023-03-22T08:35:51.763Z,67.48
2023-03-22T08:38:19.655Z,67.43
2023-03-22T08:40:51.036Z,68.14
2023-03-22T08:43:22.100Z,67.53
2023-03-22T08:45:49.069Z,67.95
2023-03-22T08:48:19.607Z,67.98
2023-03-22T08:51:06.888Z,67.56
2023-03-22T08:54:12.610Z,67.84
2023-03-22T08:56:59.154Z,67.83
2023-03-22T08:59:45.088Z,68.21
2023-03-22T09:02:23.464Z,68.25
2023-03-22T09:04:51.320Z,68.40
2023-03-22T09:07:24.263Z,68.39
2023-03-22T09:10:12.767Z,68.84
2023-03-22T09:12:43.186Z,68.85
2023-03-22T09:15:10.449Z,68.45
2023-03-22T09:17:40.539Z,68.73
2023-03-22T09:20:12.816Z,68.89
2023-03-22T09:22:42.749Z,68.91
2023-03-22T09:25:13.013Z,69.08
2023-03-22T09:27:42.728Z,69.21
2023-03-22T09:30:10.333Z,68.82
2023-03-22T09:32:37.289Z,69.19
2023-03-22T09:35:06.378Z,69.53
2023-03-22T09:37:42.246Z,69.61
2023-03-22T09:40:11.909Z,69.84
2023-03-22T09:42:46.475Z,69.45
2023-03-22T09:45:20.936Z,69.87
2023-03-22T09:47:52.747Z,69.62
2023-03-22T09:50:25.496Z,70.21
2023-03-22T09:52:53.938Z,70.24
2023-03-22T09:55:42.516Z,70.30
2023-03-22T09:58:33.148Z,70.17
2023-03-22T10:01:07.551Z,70.40
2023-03-22T10:04:06.803Z,70.53
2023-03-22T10:06:53.872Z,70.41
2023-03-22T10:09:55.257Z,70.34
2023-03-22T10:12:52.412Z,70.42
2023-03-22T10:15:56.726Z,70.89
2023-03-22T10:18:50.004Z,70.83
2023-03-22T10:21:38.903Z,71.20
2023-03-22T10:24:52.046Z,70.68
2023-03-22T10:27:41.589Z,70.89
2023-03-22T10:30:44.531Z,70.97
2023-03-22T10:33:46.554Z,71.39
2023-03-22T10:36:34.882Z,71.17
2023-03-22T10:39:30.150Z,71.45
2023-03-22T10:42:21.123Z,71.67
2023-03-22T10:45:26.034Z,71.91
2023-03-22T10:48:22.236Z,71.98
2023-03-22T10:51:09.308Z,71.67
2023-03-22T10:54:07.179Z,72.33
2023-03-22T10:56:54.116Z,72.34
2023-03-22T11:00:10.238Z,71.99
2023-03-22T11:03:05.782Z,71.98
2023-03-22T11:05:52.913Z,72.20
2023-03-22T11:08:40.003Z,72.25
2023-03-22T11:11:34.924Z,72.69
2023-03-22T11:14:28.684Z,72.14
2023-03-22T11:17:27.187Z,73.03
2023-03-22T11:20:26.304Z,73.19
2023-03-22T11:23:13.533Z,72.26
2023-03-22T11:26:07.376Z,73.38
2023-03-22T11:28:57.751Z,73.51
2023-03-22T11:31:44.859Z,73.24
2023-03-22T11:34:38.334Z,72.93
2023-03-22T11:37:28.295Z,73.21
2023-03-22T11:40:20.762Z,73.64
2023-03-22T11:43:12.012Z,73.57
2023-03-22T11:46:02.947Z,74.02
2023-03-22T11:48:52.752Z,73.38
2023-03-22T11:51:51.515Z,73.30
2023-03-22T11:54:51.685Z,74.20
2023-03-22T11:57:46.104Z,74.14
2023-03-22T12:00:38.317Z,74.24
2023-03-22T12:03:32.244Z,74.13
2023-03-22T12:06:22.731Z,74.29
2023-03-22T12:09:14.223Z,73.65
2023-03-22T12:12:07.127Z,74.35
2023-03-22T12:15:23.445Z,74.99
2023-03-22T12:18:19.441Z,74.26
2023-03-22T12:21:16.211Z,75.20
2023-03-22T12:24:03.284Z,74.90
2023-03-22T12:26:52.252Z,75.02
2023-03-22T12:29:39.768Z,75.34
2023-03-22T12:32:35.454Z,75.24
2023-03-22T12:35:24.257Z,74.67
2023-03-22T12:38:15.716Z,74.70
2023-03-22T12:41:03.226Z,75.17
2023-03-22T12:44:04.614Z,75.08
2023-03-22T12:46:56.213Z,75.19
2023-03-22T12:50:01.550Z,75.14
2023-03-22T12:53:10.976Z,75.05
2023-03-22T12:55:59.948Z,75.32
2023-03-22T12:58:47.301Z,75.61
2023-03-22T13:01:50.491Z,75.85
2023-03-22T13:05:11.617Z,75.24
2023-03-22T13:08:07.968Z,75.68
2023-03-22T13:10:54.889Z,75.72
2023-03-22T13:13:41.735Z,75.92
2023-03-22T13:16:29.030Z,75.42
2023-03-22T13:19:19.080Z,75.96
2023-03-22T13:22:08.882Z,75.82
2023-03-22T13:25:19.544Z,75.94
2023-03-22T13:28:13.910Z,76.32
2023-03-22T13:31:14.326Z,75.19
2023-03-22T13:34:01.606Z,76.14
2023-03-22T13:36:50.865Z,75.37
2023-03-22T13:39:38.166Z,76.51
2023-03-22T13:42:42.496Z,76.13
2023-03-22T13:45:49.428Z,76.91
2023-03-22T13:49:06.478Z,76.18
2023-03-22T13:51:54.091Z,76.29
2023-03-22T13:54:43.523Z,75.86
2023-03-22T13:57:58.296Z,76.55
2023-03-22T14:00:51.294Z,76.22
2023-03-22T14:03:46.316Z,77.39
2023-03-22T14:06:46.423Z,76.12
2023-03-22T14:09:49.877Z,76.86
2023-03-22T14:12:43.423Z,76.78
2023-03-22T14:15:36.963Z,77.31
2023-03-22T14:18:49.878Z,76.28
2023-03-22T14:21:41.821Z,76.54
